createdAt,value
2017-07-22T00:01:24.827Z,22.29
2017-07-22T00:03:53.893Z,22.05
2017-07-22T00:06:21.592Z,21.86
2017-07-22T00:08:49.257Z,21.60
2017-07-22T00:11:17.925Z,21.71
2017-07-22T00:13:45.701Z,21.64
2017-07-22T00:16:13.396Z,21.61
2017-07-22T00:18:44.372Z,21.57
2017-07-22T00:21:12.717Z,21.62
2017-07-22T00:23:40.774Z,21.55
2017-07-22T00:26:10.251Z,21.55
2017-07-22T00:28:39.509Z,21.43
2017-07-22T00:31:07.220Z,21.27
2017-07-22T00:33:34.840Z,21.32
2017-07-22T00:36:03.988Z,21.37
2017-07-22T00:38:32.640Z,21.37
2017-07-22T00:41:00.979Z,21.40
2017-07-22T00:43:30.180Z,21.68
2017-07-22T00:45:57.946Z,21.97
2017-07-22T00:48:26.232Z,22.07
2017-07-22T00:50:53.957Z,22.19
2017-07-22T00:53:21.717Z,22.26
2017-07-22T00:55:49.441Z,22.36
2017-07-22T00:58:17.180Z,22.36
2017-07-22T01:00:44.905Z,22.53
2017-07-22T01:03:12.592Z,22.64
2017-07-22T01:05:42.431Z,22.70
2017-07-22T01:08:10.199Z,22.66
2017-07-22T01:10:37.957Z,22.64
2017-07-22T01:13:05.647Z,22.64
2017-07-22T01:15:33.379Z,22.67
2017-07-22T01:18:01.210Z,22.74
2017-07-22T01:20:29.886Z,22.72
2017-07-22T01:22:57.582Z,22.71
2017-07-22T01:25:25.207Z,22.72
2017-07-22T01:27:52.942Z,22.63
2017-07-22T01:30:21.070Z,22.56
2017-07-22T01:32:48.914Z,22.47
2017-07-22T01:35:18.139Z,22.42
2017-07-22T01:37:45.881Z,22.38
2017-07-22T01:40:13.542Z,22.25
2017-07-22T01:42:41.915Z,22.35
2017-07-22T01:45:10.203Z,22.31
2017-07-22T01:47:38.126Z,22.20
2017-07-22T01:50:05.855Z,22.19
2017-07-22T01:52:33.523Z,22.20
2017-07-22T01:55:05.502Z,22.18
2017-07-22T01:57:33.663Z,22.13
2017-07-22T02:00:01.909Z,22.15
2017-07-22T02:02:44.028Z,22.09
2017-07-22T02:05:13.883Z,22.09
2017-07-22T02:07:50.741Z,21.96
2017-07-22T02:10:28.804Z,22.00
2017-07-22T02:13:00.457Z,22.06
2017-07-22T02:15:37.360Z,22.04
2017-07-22T02:18:13.361Z,22.10
2017-07-22T02:23:27.272Z,22.18
2017-07-22T02:26:09.619Z,22.17
2017-07-22T02:28:41.646Z,22.17
2017-07-22T02:31:15.988Z,22.20
2017-07-22T02:39:06.885Z,22.12
2017-07-22T02:41:37.297Z,22.03
2017-07-22T02:44:07.092Z,22.04
2017-07-22T02:46:35.749Z,21.95
2017-07-22T02:49:04.177Z,21.98
2017-07-22T02:51:31.989Z,22.02
2017-07-22T02:53:59.595Z,21.96
2017-07-22T02:56:29.197Z,21.95
2017-07-22T02:58:57.832Z,21.99
2017-07-22T03:01:25.584Z,21.94
2017-07-22T03:03:53.265Z,21.86
2017-07-22T03:06:20.935Z,21.80
2017-07-22T03:08:48.654Z,21.69
2017-07-22T03:11:17.159Z,21.66
2017-07-22T03:13:46.407Z,21.70
2017-07-22T03:16:14.155Z,21.71
2017-07-22T03:18:41.816Z,21.59
2017-07-22T03:21:09.493Z,21.52
2017-07-22T03:23:37.127Z,21.61
2017-07-22T03:26:05.723Z,21.78
2017-07-22T03:28:33.400Z,21.78
2017-07-22T03:31:01.474Z,21.68
2017-07-22T03:33:29.956Z,21.64
2017-07-22T03:35:58.611Z,21.67
2017-07-22T03:38:27.792Z,21.70
2017-07-22T03:41:09.795Z,21.54
2017-07-22T03:43:38.966Z,21.57
2017-07-22T03:46:17.116Z,21.63
2017-07-22T03:48:44.793Z,21.61
2017-07-22T03:51:13.402Z,21.63
2017-07-22T03:53:41.161Z,21.70
2017-07-22T03:56:12.020Z,21.96
2017-07-22T03:58:47.871Z,21.79
2017-07-22T04:01:20.875Z,21.72
2017-07-22T04:04:01.938Z,21.81
2017-07-22T04:06:30.178Z,21.75
2017-07-22T04:08:58.605Z,21.82
2017-07-22T04:11:27.676Z,21.84
2017-07-22T04:13:55.410Z,21.97
2017-07-22T04:16:23.058Z,22.01
2017-07-22T04:18:50.760Z,22.08
2017-07-22T04:21:18.456Z,22.11
2017-07-22T04:23:46.136Z,22.13
2017-07-22T04:26:13.841Z,22.22
2017-07-22T04:28:41.667Z,22.25
2017-07-22T04:31:09.341Z,22.34
2017-07-22T04:33:38.429Z,22.37
2017-07-22T04:36:06.070Z,22.48
2017-07-22T04:38:33.752Z,22.69
2017-07-22T04:41:01.421Z,22.71
2017-07-22T04:43:29.125Z,22.67
2017-07-22T04:45:56.802Z,22.56
2017-07-22T04:48:24.703Z,22.67
2017-07-22T04:50:52.401Z,22.75
2017-07-22T04:53:20.103Z,22.90
2017-07-22T04:55:48.068Z,23.05
2017-07-22T04:58:16.832Z,23.13
2017-07-22T05:00:46.840Z,23.23
2017-07-22T05:03:15.311Z,23.22
2017-07-22T05:05:43.047Z,23.40
2017-07-22T05:08:11.308Z,23.51
2017-07-22T05:10:38.977Z,23.58
2017-07-22T05:13:09.450Z,23.71
2017-07-22T05:15:37.191Z,23.73
2017-07-22T05:18:04.853Z,23.52
2017-07-22T05:20:33.153Z,23.73
2017-07-22T05:23:01.189Z,24.08
2017-07-22T05:25:28.921Z,24.34
2017-07-22T05:27:56.597Z,24.44
2017-07-22T05:30:24.286Z,24.61
2017-07-22T05:32:52.021Z,24.81
2017-07-22T05:35:19.702Z,25.02
2017-07-22T05:37:47.412Z,25.22
2017-07-22T05:40:15.140Z,25.36
2017-07-22T05:42:42.886Z,25.13
2017-07-22T05:45:10.634Z,25.46
2017-07-22T05:47:38.930Z,25.50
2017-07-22T05:50:06.611Z,25.64
2017-07-22T05:52:34.295Z,25.65
2017-07-22T05:55:02.214Z,26.00
2017-07-22T05:57:29.890Z,26.16
2017-07-22T05:59:57.601Z,26.39
2017-07-22T06:02:25.287Z,26.46
2017-07-22T06:04:53.223Z,26.53
2017-07-22T06:07:20.957Z,26.55
2017-07-22T06:09:48.689Z,26.48
2017-07-22T06:12:17.572Z,27.11
2017-07-22T06:14:45.342Z,27.50
2017-07-22T06:17:13.058Z,27.43
2017-07-22T06:19:40.786Z,27.74
2017-07-22T06:22:08.632Z,28.00
2017-07-22T06:24:37.104Z,28.15
2017-07-22T06:27:04.869Z,28.28
2017-07-22T06:29:32.629Z,28.44
2017-07-22T06:32:00.387Z,28.26
2017-07-22T06:34:28.044Z,28.49
2017-07-22T06:36:56.918Z,28.93
2017-07-22T06:39:24.662Z,28.81
2017-07-22T06:41:52.481Z,28.77
2017-07-22T06:44:20.208Z,28.98
2017-07-22T06:46:47.984Z,28.70
2017-07-22T06:49:15.674Z,29.13
2017-07-22T06:51:43.389Z,29.56
2017-07-22T06:54:11.165Z,29.49
2017-07-22T06:56:38.861Z,29.91
2017-07-22T06:59:06.571Z,30.20
2017-07-22T07:01:35.124Z,30.22
2017-07-22T07:04:02.875Z,29.56
2017-07-22T07:09:54.351Z,29.05
2017-07-22T07:12:22.102Z,29.03
2017-07-22T07:14:51.462Z,29.30
2017-07-22T07:17:20.132Z,29.10
2017-07-22T07:19:48.421Z,29.42
2017-07-22T07:22:16.599Z,28.90
2017-07-22T07:24:47.186Z,29.22
2017-07-22T07:30:44.912Z,29.29
2017-07-22T07:33:15.206Z,29.71
2017-07-22T07:35:45.984Z,30.33
2017-07-22T07:38:16.508Z,30.53
2017-07-22T07:44:14.729Z,30.48
2017-07-22T07:46:45.076Z,30.54
2017-07-22T07:52:37.012Z,31.34
2017-07-22T07:55:05.695Z,31.44
2017-07-22T07:57:36.474Z,31.68
2017-07-22T08:00:11.880Z,31.31
2017-07-22T08:02:41.129Z,31.22
2017-07-22T08:05:12.134Z,31.64
2017-07-22T08:07:41.183Z,31.96
2017-07-22T08:10:08.919Z,32.04
2017-07-22T08:12:36.914Z,32.39
2017-07-22T08:15:05.047Z,32.70
2017-07-22T08:17:32.975Z,32.67
2017-07-22T08:20:01.135Z,32.90
2017-07-22T08:22:28.988Z,32.96
2017-07-22T08:24:56.911Z,32.85
2017-07-22T08:27:24.927Z,32.96
2017-07-22T08:29:53.613Z,32.80
2017-07-22T08:32:21.617Z,32.30
2017-07-22T08:34:50.794Z,32.38
2017-07-22T08:37:18.683Z,32.42
2017-07-22T08:39:46.579Z,32.58
2017-07-22T08:42:14.601Z,32.59
2017-07-22T08:44:42.603Z,32.71
2017-07-22T08:47:10.455Z,33.14
2017-07-22T08:49:38.410Z,33.38
2017-07-22T08:52:06.493Z,32.53
2017-07-22T08:54:34.418Z,32.13
2017-07-22T08:57:02.495Z,32.38
2017-07-22T08:59:31.292Z,32.97
2017-07-22T09:02:00.084Z,32.88
2017-07-22T09:04:28.870Z,32.19
2017-07-22T09:06:56.995Z,32.54
2017-07-22T09:09:25.755Z,33.02
2017-07-22T09:11:54.484Z,33.03
2017-07-22T09:14:23.464Z,32.71
2017-07-22T09:16:52.940Z,32.72
2017-07-22T09:19:22.163Z,33.03
2017-07-22T09:21:50.354Z,32.36
2017-07-22T09:24:18.277Z,32.65
2017-07-22T09:26:47.865Z,32.99
2017-07-22T09:29:18.078Z,33.54
2017-07-22T09:31:52.772Z,33.93
2017-07-22T09:34:21.584Z,33.98
2017-07-22T09:36:50.260Z,34.27
2017-07-22T09:39:18.651Z,34.09
2017-07-22T09:41:47.729Z,34.17
2017-07-22T09:44:16.107Z,34.45
2017-07-22T09:46:44.332Z,34.55
2017-07-22T09:49:12.570Z,34.90
2017-07-22T09:51:40.827Z,34.87
2017-07-22T09:54:10.187Z,34.59
2017-07-22T09:56:39.154Z,34.69
2017-07-22T09:59:08.316Z,34.49
2017-07-22T10:01:36.187Z,34.43
2017-07-22T10:07:25.890Z,34.80
2017-07-22T10:09:53.823Z,34.89
2017-07-22T10:12:21.729Z,34.99
2017-07-22T10:14:51.354Z,35.38
2017-07-22T10:17:19.864Z,35.72
2017-07-22T10:19:47.910Z,35.69
2017-07-22T10:22:16.579Z,35.79
2017-07-22T10:24:45.656Z,35.91
2017-07-22T10:27:14.074Z,36.00
2017-07-22T10:29:42.864Z,36.30
2017-07-22T10:32:12.092Z,36.24
2017-07-22T10:34:41.529Z,36.37
2017-07-22T10:37:09.318Z,36.31
2017-07-22T10:39:37.579Z,35.99
2017-07-22T10:42:06.241Z,35.41
2017-07-22T10:44:41.303Z,35.37
2017-07-22T10:47:09.866Z,35.24
2017-07-22T10:49:37.801Z,35.10
2017-07-22T10:52:06.356Z,35.15
2017-07-22T10:54:35.245Z,35.57
2017-07-22T10:57:03.817Z,35.83
2017-07-22T10:59:32.017Z,35.92
2017-07-22T11:02:00.913Z,36.19
2017-07-22T11:04:28.872Z,36.35
2017-07-22T11:06:57.588Z,36.19
2017-07-22T11:09:25.583Z,36.26
2017-07-22T11:11:55.682Z,36.59
2017-07-22T11:14:35.712Z,36.38
2017-07-22T11:17:05.130Z,36.39
2017-07-22T11:19:33.194Z,36.50
2017-07-22T11:22:01.219Z,36.60
2017-07-22T11:24:30.090Z,36.67
2017-07-22T11:27:02.494Z,36.34
2017-07-22T11:29:34.341Z,36.48
2017-07-22T11:32:13.535Z,36.45
2017-07-22T11:34:44.024Z,36.29
2017-07-22T11:37:15.278Z,35.79
2017-07-22T11:39:44.506Z,35.86
2017-07-22T11:42:16.556Z,35.61
2017-07-22T11:44:48.494Z,35.87
2017-07-22T11:47:20.247Z,35.76
2017-07-22T11:49:56.080Z,35.42
2017-07-22T11:52:25.129Z,35.55
2017-07-22T11:55:08.320Z,35.92
2017-07-22T11:57:39.539Z,36.03
2017-07-22T12:00:09.647Z,36.22
2017-07-22T12:02:39.317Z,35.26
2017-07-22T12:05:09.741Z,35.23
2017-07-22T12:07:41.611Z,35.62
2017-07-22T12:10:10.551Z,35.50
2017-07-22T12:12:39.343Z,35.15
2017-07-22T12:15:11.089Z,34.99
2017-07-22T12:17:40.053Z,34.98
2017-07-22T12:20:09.537Z,35.20
2017-07-22T12:22:37.993Z,35.78
2017-07-22T12:25:06.498Z,35.76
2017-07-22T12:27:35.506Z,35.62
2017-07-22T12:30:07.989Z,35.97
2017-07-22T12:32:36.782Z,35.93
2017-07-22T12:35:09.567Z,35.65
2017-07-22T12:37:37.581Z,35.34
2017-07-22T12:40:05.546Z,35.48
2017-07-22T12:42:35.869Z,35.54
2017-07-22T12:45:05.891Z,35.73
2017-07-22T12:50:11.877Z,35.76
2017-07-22T12:52:47.508Z,35.85
2017-07-22T12:55:18.358Z,35.91
2017-07-22T12:57:47.238Z,36.02
2017-07-22T13:00:19.686Z,36.22
2017-07-22T13:05:40.760Z,36.11
2017-07-22T13:08:09.894Z,35.87
2017-07-22T13:10:40.500Z,35.64
2017-07-22T13:13:16.196Z,35.38
2017-07-22T13:15:46.204Z,35.13
2017-07-22T13:18:19.582Z,35.26
2017-07-22T13:20:53.497Z,35.18
2017-07-22T13:23:21.194Z,35.25
2017-07-22T13:25:58.031Z,35.29
2017-07-22T13:28:27.677Z,35.57
2017-07-22T13:30:58.133Z,35.62
2017-07-22T13:33:30.932Z,35.66
2017-07-22T13:36:05.290Z,35.81
2017-07-22T13:38:44.112Z,35.87
2017-07-22T13:41:16.366Z,35.74
2017-07-22T13:43:50.432Z,35.89
2017-07-22T13:46:19.583Z,35.96
2017-07-22T13:48:47.781Z,35.70
2017-07-22T13:51:20.595Z,35.50
2017-07-22T13:53:52.305Z,35.37
2017-07-22T13:56:24.103Z,35.49
2017-07-22T13:58:52.694Z,35.30
2017-07-22T14:01:28.563Z,35.32
2017-07-22T14:03:57.968Z,35.11
2017-07-22T14:06:29.448Z,35.01
2017-07-22T14:09:03.141Z,35.15
2017-07-22T14:11:35.687Z,34.45
2017-07-22T14:14:07.947Z,34.35
2017-07-22T14:16:35.576Z,34.53
2017-07-22T14:19:03.195Z,34.52
2017-07-22T14:21:30.786Z,34.44
2017-07-22T14:23:58.425Z,34.50
2017-07-22T14:26:26.037Z,34.16
2017-07-22T14:28:53.611Z,34.11
2017-07-22T14:31:21.214Z,34.14
2017-07-22T14:33:48.955Z,34.13
2017-07-22T14:36:16.594Z,34.14
2017-07-22T14:38:44.459Z,34.15
2017-07-22T14:41:12.070Z,34.28
2017-07-22T14:43:40.159Z,34.06
2017-07-22T14:46:07.815Z,34.24
2017-07-22T14:48:37.403Z,34.35
2017-07-22T14:51:05.127Z,34.49
2017-07-22T14:53:33.512Z,34.45
2017-07-22T14:56:01.836Z,34.48
2017-07-22T14:58:29.565Z,34.44
2017-07-22T15:00:57.287Z,34.38
2017-07-22T15:03:25.026Z,34.32
2017-07-22T15:05:52.718Z,34.42
2017-07-22T15:08:21.014Z,34.43
2017-07-22T15:10:48.668Z,34.30
2017-07-22T15:13:16.349Z,34.36
2017-07-22T15:15:44.529Z,34.42
2017-07-22T15:18:12.153Z,34.45
2017-07-22T15:20:39.699Z,34.48
2017-07-22T15:23:07.433Z,34.45
2017-07-22T15:25:35.012Z,34.45
2017-07-22T15:28:02.677Z,34.40
2017-07-22T15:30:30.445Z,34.27
2017-07-22T15:32:58.268Z,34.36
2017-07-22T15:35:25.896Z,34.32
2017-07-22T15:37:53.498Z,34.06
2017-07-22T15:40:22.820Z,34.12
2017-07-22T15:42:50.522Z,34.06
2017-07-22T15:45:18.164Z,33.95
2017-07-22T15:47:45.742Z,33.97
2017-07-22T15:50:13.877Z,34.07
2017-07-22T15:52:41.566Z,34.05
2017-07-22T15:55:09.274Z,33.95
2017-07-22T15:57:37.092Z,34.07
2017-07-22T16:00:07.892Z,34.01
2017-07-22T16:02:35.468Z,33.96
2017-07-22T16:05:03.169Z,33.71
2017-07-22T16:07:31.221Z,33.72
2017-07-22T16:09:59.051Z,33.62
2017-07-22T16:12:26.862Z,33.80
2017-07-22T16:14:54.589Z,33.82
2017-07-22T16:17:22.403Z,33.76
2017-07-22T16:19:50.230Z,33.55
2017-07-22T16:22:17.870Z,33.54
2017-07-22T16:24:45.523Z,33.47
2017-07-22T16:27:13.891Z,33.47
2017-07-22T16:29:41.519Z,33.34
2017-07-22T16:32:09.106Z,33.23
2017-07-22T16:34:36.703Z,33.15
2017-07-22T16:37:04.853Z,33.12
2017-07-22T16:39:32.504Z,33.16
2017-07-22T16:42:00.087Z,33.00
2017-07-22T16:44:27.687Z,33.04
2017-07-22T16:46:55.318Z,33.02
2017-07-22T16:49:22.910Z,33.04
2017-07-22T16:51:50.465Z,32.96
2017-07-22T16:54:18.111Z,32.80
2017-07-22T16:56:45.703Z,32.83
2017-07-22T16:59:14.026Z,32.73
2017-07-22T17:01:42.530Z,32.78
2017-07-22T17:04:10.147Z,32.58
2017-07-22T17:06:37.960Z,32.38
2017-07-22T17:09:05.609Z,32.29
2017-07-22T17:11:33.174Z,32.24
2017-07-22T17:14:00.775Z,32.22
2017-07-22T17:16:28.466Z,32.16
2017-07-22T17:18:56.481Z,32.08
2017-07-22T17:21:24.049Z,32.10
2017-07-22T17:23:52.487Z,31.93
2017-07-22T17:26:20.107Z,31.74
2017-07-22T17:28:47.684Z,31.53
2017-07-22T17:31:15.395Z,31.47
2017-07-22T17:33:43.253Z,31.65
2017-07-22T17:36:10.869Z,31.62
2017-07-22T17:38:38.541Z,31.66
2017-07-22T17:41:06.319Z,31.61
2017-07-22T17:43:33.894Z,31.35
2017-07-22T17:46:01.547Z,31.26
2017-07-22T17:48:29.147Z,31.19
2017-07-22T17:50:56.826Z,31.12
2017-07-22T17:53:24.564Z,31.09
2017-07-22T17:55:52.255Z,30.77
2017-07-22T17:58:20.009Z,30.84
2017-07-22T18:00:47.733Z,30.78
2017-07-22T18:03:15.379Z,30.77
2017-07-22T18:05:43.141Z,30.80
2017-07-22T18:08:10.956Z,30.73
2017-07-22T18:10:38.781Z,30.62
2017-07-22T18:13:06.475Z,30.46
2017-07-22T18:15:36.920Z,30.34
2017-07-22T18:18:04.735Z,30.26
2017-07-22T18:20:33.536Z,30.19
2017-07-22T18:23:01.254Z,30.09
2017-07-22T18:25:33.623Z,30.12
2017-07-22T18:28:01.299Z,30.01
2017-07-22T18:30:29.276Z,30.02
2017-07-22T18:32:58.603Z,29.96
2017-07-22T18:35:26.389Z,29.77
2017-07-22T18:37:54.111Z,29.73
2017-07-22T18:40:21.889Z,29.57
2017-07-22T18:42:49.616Z,29.44
2017-07-22T18:45:17.450Z,29.42
2017-07-22T18:47:45.291Z,29.39
2017-07-22T18:50:14.549Z,29.37
2017-07-22T18:52:42.213Z,29.22
2017-07-22T18:55:10.039Z,29.18
2017-07-22T18:57:37.719Z,29.24
2017-07-22T19:00:07.964Z,29.27
2017-07-22T19:02:41.161Z,29.19
2017-07-22T19:05:12.097Z,29.14
2017-07-22T19:07:43.544Z,29.07
2017-07-22T19:10:28.798Z,29.03
2017-07-22T19:13:07.155Z,29.05
2017-07-22T19:15:52.269Z,29.04
2017-07-22T19:18:25.546Z,28.94
2017-07-22T19:20:53.568Z,28.81
2017-07-22T19:23:21.986Z,28.71
2017-07-22T19:25:50.613Z,28.61
2017-07-22T19:28:18.574Z,28.54
2017-07-22T19:30:46.377Z,28.53
2017-07-22T19:33:15.654Z,28.24
2017-07-22T19:35:46.388Z,28.22
2017-07-22T19:38:15.697Z,28.31
2017-07-22T19:40:43.462Z,28.14
2017-07-22T19:43:11.127Z,28.06
2017-07-22T19:45:39.007Z,28.03
2017-07-22T19:48:07.419Z,27.96
2017-07-22T19:50:35.114Z,27.93
2017-07-22T19:53:02.806Z,28.02
2017-07-22T19:55:30.554Z,27.90
2017-07-22T19:57:58.391Z,27.98
2017-07-22T20:00:26.517Z,27.98
2017-07-22T20:02:54.403Z,27.96
2017-07-22T20:05:23.907Z,27.92
2017-07-22T20:11:12.800Z,27.70
2017-07-22T20:13:40.838Z,27.65
2017-07-22T20:16:09.152Z,27.64
2017-07-22T20:18:37.065Z,27.63
2017-07-22T20:21:05.412Z,27.52
2017-07-22T20:23:36.694Z,27.56
2017-07-22T20:26:04.460Z,27.43
2017-07-22T20:28:33.595Z,27.32
2017-07-22T20:31:02.124Z,27.44
2017-07-22T20:33:29.916Z,27.37
2017-07-22T20:36:01.066Z,27.31
2017-07-22T20:41:03.459Z,27.30
2017-07-22T20:43:31.174Z,27.19
2017-07-22T20:46:00.267Z,27.20
2017-07-22T20:48:27.955Z,27.05
2017-07-22T20:50:55.680Z,27.01
2017-07-22T20:53:23.320Z,26.98
2017-07-22T20:55:50.982Z,26.87
2017-07-22T20:58:18.873Z,26.79
2017-07-22T21:00:47.111Z,26.80
2017-07-22T21:03:14.925Z,26.75
2017-07-22T21:05:42.653Z,26.74
2017-07-22T21:08:10.395Z,26.63
2017-07-22T21:10:38.073Z,26.59
2017-07-22T21:13:05.777Z,26.56
2017-07-22T21:15:33.445Z,26.51
2017-07-22T21:18:02.420Z,26.49
2017-07-22T21:20:30.049Z,26.46
2017-07-22T21:23:02.179Z,26.43
2017-07-22T21:25:29.939Z,26.42
2017-07-22T21:28:00.505Z,26.38
2017-07-22T21:30:28.323Z,26.30
2017-07-22T21:32:56.004Z,26.37
2017-07-22T21:35:23.846Z,26.47
2017-07-22T21:37:51.605Z,26.39
2017-07-22T21:40:19.325Z,26.39
2017-07-22T21:42:48.633Z,26.31
2017-07-22T21:49:27.893Z,26.15
2017-07-22T21:51:55.512Z,26.18
2017-07-22T21:54:24.507Z,26.10
2017-07-22T21:56:52.237Z,25.99
2017-07-22T21:59:20.771Z,26.08
2017-07-22T22:01:48.420Z,26.04
2017-07-22T22:04:16.159Z,25.98
2017-07-22T22:06:44.031Z,25.97
2017-07-22T22:09:11.649Z,26.07
2017-07-22T22:11:39.533Z,25.93
2017-07-22T22:14:07.686Z,26.01
2017-07-22T22:16:35.465Z,25.83
2017-07-22T22:19:03.247Z,25.85
2017-07-22T22:21:30.912Z,25.96
2017-07-22T22:23:58.531Z,25.97
2017-07-22T22:26:26.164Z,26.06
2017-07-22T22:28:55.498Z,25.97
2017-07-22T22:31:26.084Z,25.90
2017-07-22T22:33:56.295Z,26.01
2017-07-22T22:36:25.571Z,26.17
2017-07-22T22:38:53.247Z,26.08
2017-07-22T22:41:21.881Z,26.10
2017-07-22T22:43:49.471Z,26.23
2017-07-22T22:46:17.344Z,26.20
2017-07-22T22:48:45.044Z,26.13
2017-07-22T22:51:12.636Z,26.10
2017-07-22T22:53:42.809Z,26.18
2017-07-22T22:56:10.947Z,26.25
2017-07-22T22:58:41.088Z,26.28
2017-07-22T23:01:10.159Z,26.40
2017-07-22T23:03:38.879Z,26.45
2017-07-22T23:06:07.075Z,26.39
2017-07-22T23:08:34.754Z,26.20
2017-07-22T23:11:02.470Z,25.66
2017-07-22T23:13:30.119Z,25.81
2017-07-22T23:15:57.782Z,25.71
2017-07-22T23:18:25.412Z,25.67
2017-07-22T23:20:52.974Z,25.70
2017-07-22T23:23:21.418Z,25.79
2017-07-22T23:25:49.172Z,25.82
2017-07-22T23:28:18.094Z,25.84
2017-07-22T23:30:45.912Z,26.02
2017-07-22T23:33:14.390Z,26.01
2017-07-22T23:35:42.051Z,26.09
2017-07-22T23:38:09.827Z,26.02
2017-07-22T23:40:38.428Z,25.99
2017-07-22T23:43:06.003Z,25.81
2017-07-22T23:45:33.624Z,25.69
2017-07-22T23:48:02.134Z,25.82
2017-07-22T23:50:29.876Z,25.83
2017-07-22T23:52:58.234Z,25.54
2017-07-22T23:55:25.855Z,25.23
2017-07-22T23:57:53.834Z,24.74
